Contact Us:
Email: info@sawbill.com
Phone: (218)663-7150
Fax: (218)663-7980
Mail: 4620 Sawbill Trail
Box 2129
Tofte, MN 55615


Powered by
Movable Type 3.15
 
Sawbill Weather History Archives: January 2003
Current Sawbill Weather History | « December 2002 | February 2003 »


Date

High
Temperature

Low
Temperature

Barometric
Pressure

Relative
Humidity 7AM

9 AM
Temperature

Moisture

Snow

01/31/03 37 22 30.00 87% 27 0  
01/30/03 25 7 30.08 80% 23 0  
01/29/03 17 -9 29.01 70% 13 0  
01/28/03 13 -9 29.46 54% -8 0  
01/27/03 15 -16 29.11 67% 8 .12" 2"
01/26/03 3 -17 29.15 68% 3 0  
01/25/03 10 -17 29.43 50% -17 0  
01/24/03 15 -5 29.17 56% 1 Trace  
01/23/03 2 -18 29.42 53% -5 0  
01/22/03 -2 -18 29.62 52% -13 Trace  
01/21/03 1 -18 29.49 47% -18 0  
01/20/03 4 -11 30.23 54% -10 0  
01/19/03 11 -10 30.02 56% -10 Trace  
01/18/03 9 -3 28.59 65% 2 Trace  
01/17/03 24 -5 28.87 62% 7 .01" .05"
01/16/03 12 -5 29.33 55% -4 0  
01/15/03 15 -7 29.22 49% 2 0  
01/14/03 5 -9 29.33 58% -7 0  
01/13/03 8 -9 29.24 57% -8 0  
01/12/03 15 -8 29.24 57% -8 0  
01/11/03 13 -3 29.16 59% -2 0  
01/10/03 11 1 29.19 62% 4 0  
01/09/03 20 3 29.92 64% 3 Trace  
01/08/03 42 19 29.72 72% 19 0  
01/07/03 42 28 29.51 81% 28 0  
01/06/03 29 8 29.86 86% 29 0  
01/05/03 31 9 29.53 69% 9 0  
01/04/03 32 22 29.15 75% 22 Trace  
01/03/03 31 14 29.04 72% 26 0  
01/02/03 34 12 29.21 71% 14 0  
01/01/03 29 8 29.43 76% 10 0  
 


Home I Trip Planning I Rentals and Outfitting I Reservations I Campgrounds I Sawbill Store I Sawbill News I Contact

© 1997 - 2017, Sawbill Canoe Outfitters, Inc. I Privacy Policy